Time;durP1;ratioP1;P1;durP2;ratioP2;P2;SDS_P1;SDS_P2;PMS_P1;PMS_P2;Temp;Humidity;BMP_temperature;BMP_pressure;BME280_temperature;BME280_humidity;BME280_pressure;Samples;Min_cycle;Max_cycle;Signal;HPM_P1;HPM_P2
2021/11/16 00:00:49;;;;;;;47.55;32.55;;;8.90;99.90;;;;;;2071233;28;20065;-71
2021/11/16 00:01:50;;;;;;;51.83;34.50;;;8.90;99.90;;;;;;2071809;28;20048;-72
2021/11/16 00:02:50;;;;;;;45.95;32.22;;;8.90;99.90;;;;;;2070986;28;20030;-71
2021/11/16 00:03:52;;;;;;;48.90;32.45;;;8.90;99.90;;;;;;2072486;28;20022;-71
2021/11/16 00:04:53;;;;;;;48.58;32.42;;;9.00;99.90;;;;;;2064445;28;20034;-71
2021/11/16 00:05:54;;;;;;;50.50;33.30;;;9.00;99.90;;;;;;2071912;28;20037;-71
2021/11/16 00:06:54;;;;;;;46.05;33.17;;;9.00;99.90;;;;;;2071699;28;20092;-71
2021/11/16 00:07:57;;;;;;;48.47;32.95;;;9.00;99.90;;;;;;2071277;28;20057;-71
2021/11/16 00:08:57;;;;;;;50.35;32.88;;;9.00;99.90;;;;;;2070836;28;20038;-71
2021/11/16 00:09:58;;;;;;;49.03;33.13;;;9.00;99.90;;;;;;2066212;28;20061;-71
2021/11/16 00:10:59;;;;;;;50.50;34.25;;;9.00;99.90;;;;;;2068867;28;20049;-71
2021/11/16 00:12:00;;;;;;;52.03;34.70;;;9.00;99.90;;;;;;2071820;28;20113;-71
2021/11/16 00:13:01;;;;;;;54.35;35.78;;;9.00;99.90;;;;;;2071651;28;20034;-71
2021/11/16 00:14:02;;;;;;;50.38;33.40;;;9.00;99.90;;;;;;2072283;28;20018;-71
2021/11/16 00:15:03;;;;;;;51.10;34.05;;;9.00;99.90;;;;;;2066955;28;20026;-71
2021/11/16 00:16:05;;;;;;;48.28;32.83;;;9.00;99.90;;;;;;2071020;28;20064;-71
2021/11/16 00:17:06;;;;;;;48.17;32.45;;;9.00;99.90;;;;;;2070855;28;20030;-71
2021/11/16 00:18:07;;;;;;;47.85;33.53;;;9.00;99.90;;;;;;2070973;28;20525;-71
2021/11/16 00:19:12;;;;;;;46.92;31.48;;;9.00;99.90;;;;;;2071584;28;20122;-71
2021/11/16 00:20:13;;;;;;;46.38;32.40;;;9.00;99.90;;;;;;2064981;28;20022;-71
2021/11/16 00:21:18;;;;;;;48.15;32.30;;;9.00;99.90;;;;;;2071602;28;20026;-71
2021/11/16 00:22:20;;;;;;;46.45;32.00;;;9.00;99.90;;;;;;2072038;28;20026;-71
2021/11/16 00:23:22;;;;;;;46.80;32.40;;;9.00;99.90;;;;;;2071750;28;20038;-71
2021/11/16 00:24:35;;;;;;;46.65;32.65;;;9.00;99.90;;;;;;2070667;28;20029;-71
2021/11/16 00:25:37;;;;;;;46.42;30.90;;;9.00;99.90;;;;;;2069410;28;20034;-71
2021/11/16 00:26:37;;;;;;;47.72;32.83;;;8.90;99.90;;;;;;2071266;28;20030;-71
2021/11/16 00:27:38;;;;;;;49.88;32.63;;;8.90;99.90;;;;;;2071140;28;20033;-71
2021/11/16 00:28:38;;;;;;;45.33;32.78;;;8.90;99.90;;;;;;2071358;28;20053;-71
2021/11/16 00:29:39;;;;;;;48.45;32.85;;;8.90;99.90;;;;;;2071406;28;20120;-71
2021/11/16 00:30:40;;;;;;;48.55;33.25;;;8.90;99.90;;;;;;2071266;28;20038;-71
2021/11/16 00:31:41;;;;;;;51.53;33.50;;;8.90;99.90;;;;;;2071587;28;20032;-71
2021/11/16 00:32:42;;;;;;;48.22;33.33;;;8.90;99.90;;;;;;2071450;28;20029;-71
2021/11/16 00:33:43;;;;;;;48.15;32.60;;;9.00;99.90;;;;;;2071622;28;20041;-71
2021/11/16 00:34:44;;;;;;;50.17;33.42;;;8.90;99.90;;;;;;2070903;28;20022;-71
2021/11/16 00:35:45;;;;;;;51.10;32.72;;;9.00;99.90;;;;;;2068621;28;20024;-71
2021/11/16 00:36:45;;;;;;;51.03;34.50;;;9.00;99.90;;;;;;2070575;28;20033;-71
2021/11/16 00:37:46;;;;;;;51.90;32.90;;;9.00;99.90;;;;;;2071047;28;20041;-71
2021/11/16 00:38:47;;;;;;;48.50;32.50;;;9.00;99.90;;;;;;2071295;28;20480;-71
2021/11/16 00:39:47;;;;;;;52.85;35.17;;;9.00;99.90;;;;;;2071108;28;20030;-71
2021/11/16 00:40:49;;;;;;;49.10;34.30;;;9.00;99.90;;;;;;2071993;28;20021;-71
2021/11/16 00:41:49;;;;;;;46.45;31.70;;;9.00;99.90;;;;;;2071471;28;20026;-71
2021/11/16 00:42:50;;;;;;;49.90;32.83;;;9.00;99.90;;;;;;2071788;28;20046;-71
2021/11/16 00:43:52;;;;;;;48.08;31.95;;;9.00;99.90;;;;;;2072046;28;20057;-71
2021/11/16 00:44:53;;;;;;;51.58;33.67;;;9.00;99.90;;;;;;2070802;28;20032;-71
2021/11/16 00:45:54;;;;;;;48.95;34.30;;;9.00;99.90;;;;;;2067340;28;20030;-71
2021/11/16 00:46:55;;;;;;;48.80;33.25;;;9.00;99.90;;;;;;2071109;28;20026;-71
2021/11/16 00:47:55;;;;;;;50.38;34.08;;;9.00;99.90;;;;;;2071753;28;20076;-71
2021/11/16 00:48:56;;;;;;;48.80;33.65;;;9.00;99.90;;;;;;2071231;28;20025;-71
2021/11/16 00:49:56;;;;;;;52.03;33.40;;;9.00;99.90;;;;;;2068860;28;20474;-71
2021/11/16 00:51:00;;;;;;;49.70;34.42;;;9.00;99.90;;;;;;2064339;28;20032;-71
2021/11/16 00:52:01;;;;;;;52.10;33.67;;;9.00;99.90;;;;;;2071842;28;20029;-71
2021/11/16 00:53:02;;;;;;;51.00;33.58;;;9.00;99.90;;;;;;2071236;28;20041;-71
2021/11/16 00:54:03;;;;;;;50.05;33.90;;;9.10;99.90;;;;;;2072145;28;20049;-71
2021/11/16 00:55:04;;;;;;;49.80;33.25;;;9.00;99.90;;;;;;2067244;28;20076;-71
2021/11/16 00:56:08;;;;;;;51.65;32.72;;;9.00;99.90;;;;;;2071645;28;20065;-70
2021/11/16 00:57:09;;;;;;;47.47;33.08;;;9.00;99.90;;;;;;2071214;28;20041;-71
2021/11/16 00:58:10;;;;;;;48.22;32.17;;;9.00;99.90;;;;;;2068994;28;20029;-71
2021/11/16 00:59:10;;;;;;;47.47;33.30;;;9.00;99.90;;;;;;2071443;28;20057;-71
2021/11/16 01:00:13;;;;;;;46.90;32.78;;;9.00;99.90;;;;;;2071657;28;20417;-72
2021/11/16 01:01:14;;;;;;;51.10;33.50;;;9.00;99.90;;;;;;2070403;28;20095;-71
2021/11/16 01:02:15;;;;;;;45.10;31.70;;;9.00;99.90;;;;;;2066250;28;20092;-71
2021/11/16 01:03:18;;;;;;;48.42;32.70;;;8.90;99.90;;;;;;2071436;28;20481;-71
2021/11/16 01:04:19;;;;;;;45.60;32.92;;;8.90;99.90;;;;;;2070994;28;20034;-71
2021/11/16 01:05:20;;;;;;;45.05;31.98;;;8.90;99.90;;;;;;2065556;28;20490;-71
2021/11/16 01:06:21;;;;;;;49.13;32.05;;;8.90;99.90;;;;;;2071798;28;20041;-71
2021/11/16 01:07:21;;;;;;;49.55;32.08;;;8.90;99.90;;;;;;2071441;28;20045;-71
2021/11/16 01:08:23;;;;;;;47.33;31.90;;;8.90;99.90;;;;;;2071181;28;20092;-71
2021/11/16 01:09:24;;;;;;;46.28;32.20;;;8.90;99.90;;;;;;2071393;28;20052;-71
2021/11/16 01:10:25;;;;;;;45.42;31.27;;;8.80;99.90;;;;;;2071566;28;20026;-71
2021/11/16 01:11:25;;;;;;;46.42;32.30;;;8.80;99.90;;;;;;2071367;28;20037;-71
2021/11/16 01:12:27;;;;;;;45.60;31.42;;;8.80;99.90;;;;;;2071155;28;20033;-71
2021/11/16 01:13:28;;;;;;;44.60;31.05;;;8.80;99.90;;;;;;2064440;28;20030;-71
2021/11/16 01:14:29;;;;;;;48.13;32.47;;;8.80;99.90;;;;;;2072468;28;20088;-71
2021/11/16 01:15:31;;;;;;;46.95;32.58;;;8.80;99.90;;;;;;2073800;28;20100;-71
2021/11/16 01:16:32;;;;;;;51.42;32.60;;;8.80;99.90;;;;;;2079183;28;20025;-71
2021/11/16 01:17:33;;;;;;;50.72;33.38;;;8.80;99.90;;;;;;2073497;28;20018;-71
2021/11/16 01:18:34;;;;;;;44.92;32.53;;;8.80;99.90;;;;;;2071171;28;20022;-71
2021/11/16 01:19:35;;;;;;;44.55;32.50;;;8.80;99.90;;;;;;2068695;28;20022;-71
2021/11/16 01:20:37;;;;;;;45.58;31.38;;;8.80;99.90;;;;;;2067738;28;20123;-71
2021/11/16 01:21:38;;;;;;;48.70;31.73;;;8.80;99.90;;;;;;2071316;28;20018;-71
2021/11/16 01:22:39;;;;;;;46.58;32.05;;;8.70;99.90;;;;;;2071300;28;20116;-71
2021/11/16 01:23:40;;;;;;;47.45;33.47;;;8.70;99.90;;;;;;2071441;28;20034;-71
2021/11/16 01:24:40;;;;;;;47.85;32.92;;;8.70;99.90;;;;;;2071385;28;20053;-71
2021/11/16 01:25:44;;;;;;;48.88;33.10;;;8.70;99.90;;;;;;2070605;28;20034;-71
2021/11/16 01:26:46;;;;;;;47.20;32.00;;;8.70;99.90;;;;;;2066333;28;20026;-71
2021/11/16 01:27:47;;;;;;;47.25;32.50;;;8.70;99.90;;;;;;2071141;28;20029;-71
2021/11/16 01:28:48;;;;;;;44.80;32.15;;;8.70;99.90;;;;;;2071111;28;20060;-71
2021/11/16 01:29:50;;;;;;;46.78;33.58;;;8.70;99.90;;;;;;2070936;28;20026;-71
2021/11/16 01:30:53;;;;;;;45.22;31.55;;;8.80;99.90;;;;;;2070894;28;20018;-71
2021/11/16 01:31:56;;;;;;;49.25;33.05;;;8.80;99.90;;;;;;2071109;28;20032;-71
2021/11/16 01:34:05;;;;;;;48.05;32.88;;;8.70;99.90;;;;;;2063510;28;20026;-71
2021/11/16 01:35:06;;;;;;;48.65;33.75;;;8.80;99.90;;;;;;2066356;28;20504;-71
2021/11/16 01:36:09;;;;;;;46.60;32.42;;;8.80;99.90;;;;;;2070902;28;20104;-71
2021/11/16 01:37:09;;;;;;;49.22;33.22;;;8.80;99.90;;;;;;2070644;28;20029;-71
2021/11/16 01:38:12;;;;;;;47.45;31.60;;;8.80;99.90;;;;;;2071071;28;20033;-71
2021/11/16 01:39:12;;;;;;;44.22;32.72;;;8.80;99.90;;;;;;2071497;28;20044;-71
2021/11/16 01:40:17;;;;;;;47.70;31.95;;;8.80;99.90;;;;;;2071303;28;20034;-71
2021/11/16 01:41:19;;;;;;;43.70;30.58;;;8.80;99.90;;;;;;2071041;28;20101;-71
2021/11/16 01:42:21;;;;;;;48.47;33.15;;;8.80;99.90;;;;;;2071148;28;20394;-71
2021/11/16 01:43:21;;;;;;;49.97;33.05;;;8.80;99.90;;;;;;2071384;28;20390;-71
2021/11/16 01:44:22;;;;;;;48.13;34.03;;;8.80;99.90;;;;;;2070958;28;20030;-71
2021/11/16 01:45:23;;;;;;;52.13;33.20;;;8.80;99.90;;;;;;2070975;28;20041;-69
2021/11/16 01:46:24;;;;;;;43.83;31.20;;;8.80;99.90;;;;;;2068597;28;20030;-71
2021/11/16 01:47:26;;;;;;;47.65;32.38;;;8.80;99.90;;;;;;2071205;28;20033;-71
2021/11/16 01:48:26;;;;;;;50.00;33.03;;;8.90;99.90;;;;;;2070427;28;20030;-71
2021/11/16 01:49:27;;;;;;;49.10;33.50;;;8.90;99.90;;;;;;2069991;28;20037;-71
2021/11/16 01:50:28;;;;;;;49.88;34.10;;;8.90;99.90;;;;;;2070796;28;20053;-71
2021/11/16 01:51:30;;;;;;;51.50;33.95;;;8.90;99.90;;;;;;2071253;28;20026;-71
2021/11/16 01:52:30;;;;;;;49.15;33.47;;;8.90;99.90;;;;;;2070977;28;20425;-71
2021/11/16 01:53:32;;;;;;;51.40;34.38;;;8.80;99.90;;;;;;2071334;28;20030;-71
2021/11/16 01:54:32;;;;;;;49.08;31.55;;;8.90;99.90;;;;;;2065336;28;20037;-71
2021/11/16 01:55:33;;;;;;;46.95;31.52;;;8.80;99.90;;;;;;2069429;28;20082;-71
2021/11/16 01:56:40;;;;;;;44.92;31.80;;;8.80;99.90;;;;;;2067469;28;20057;-71
2021/11/16 01:57:41;;;;;;;46.83;32.55;;;8.80;99.90;;;;;;2066585;28;20025;-71
2021/11/16 01:58:42;;;;;;;46.75;32.90;;;8.80;99.90;;;;;;2072534;28;20022;-71
2021/11/16 01:59:43;;;;;;;48.38;33.22;;;8.80;99.90;;;;;;2068695;28;20026;-71
2021/11/16 02:00:46;;;;;;;47.03;31.98;;;8.80;99.90;;;;;;2066991;28;20066;-71
2021/11/16 02:01:49;;;;;;;49.97;33.35;;;8.80;99.90;;;;;;2072572;28;20033;-71
2021/11/16 02:02:50;;;;;;;52.90;33.92;;;8.80;99.90;;;;;;2072351;28;20018;-71
2021/11/16 02:03:51;;;;;;;52.97;34.45;;;8.80;99.90;;;;;;2072912;28;20014;-71
2021/11/16 02:04:52;;;;;;;50.60;33.13;;;8.80;99.90;;;;;;2072866;28;20026;-71
2021/11/16 02:06:12;;;;;;;51.47;32.35;;;8.80;99.90;;;;;;2072160;28;20521;-71
2021/11/16 02:07:13;;;;;;;50.55;33.40;;;8.80;99.90;;;;;;2072842;28;20034;-71
2021/11/16 02:08:14;;;;;;;47.65;34.58;;;8.80;99.90;;;;;;2072223;28;20049;-71
2021/11/16 02:09:17;;;;;;;51.35;33.17;;;8.80;99.90;;;;;;2072877;28;20035;-71
2021/11/16 02:10:18;;;;;;;48.78;32.85;;;8.80;99.90;;;;;;2064843;28;20061;-71
2021/11/16 02:11:19;;;;;;;49.13;32.70;;;8.80;99.90;;;;;;2065038;28;20018;-71
2021/11/16 02:12:20;;;;;;;50.90;33.28;;;8.80;99.90;;;;;;2067834;28;20073;-71
2021/11/16 02:13:20;;;;;;;46.97;32.40;;;8.80;99.90;;;;;;2072525;28;20620;-71
2021/11/16 02:14:21;;;;;;;47.85;34.20;;;8.80;99.90;;;;;;2071039;28;20037;-71
2021/11/16 02:15:22;;;;;;;49.60;32.08;;;8.80;99.90;;;;;;2066657;28;20137;-71
2021/11/16 02:16:23;;;;;;;54.50;34.13;;;8.80;99.90;;;;;;2072973;28;20117;-71
2021/11/16 02:17:24;;;;;;;51.38;33.15;;;8.80;99.90;;;;;;2073137;28;20079;-71
2021/11/16 02:18:25;;;;;;;55.28;34.05;;;8.80;99.90;;;;;;2072196;28;20053;-71
2021/11/16 02:19:26;;;;;;;49.25;32.75;;;8.80;99.90;;;;;;2070666;28;20076;-71
2021/11/16 02:20:31;;;;;;;46.92;31.90;;;8.90;99.90;;;;;;2066712;28;20029;-71
2021/11/16 02:21:31;;;;;;;47.92;32.70;;;8.90;99.90;;;;;;2064768;28;20022;-71
2021/11/16 02:22:33;;;;;;;46.10;32.17;;;8.90;99.90;;;;;;2072419;28;20022;-71
2021/11/16 02:23:34;;;;;;;46.33;33.15;;;8.90;99.90;;;;;;2072974;28;20850;-71
2021/11/16 02:24:35;;;;;;;49.65;33.60;;;8.90;99.90;;;;;;2069743;28;20049;-71
2021/11/16 02:25:36;;;;;;;49.80;33.28;;;8.90;99.90;;;;;;2070470;28;20179;-71
2021/11/16 02:26:37;;;;;;;48.42;32.50;;;8.90;99.90;;;;;;2072526;28;20029;-71
2021/11/16 02:27:38;;;;;;;45.92;31.95;;;8.90;99.90;;;;;;2072724;28;20054;-71
2021/11/16 02:28:43;;;;;;;51.28;33.72;;;8.90;99.90;;;;;;2071680;28;20033;-71
2021/11/16 02:29:44;;;;;;;49.45;34.10;;;9.00;99.90;;;;;;2064652;28;20467;-71
2021/11/16 02:30:45;;;;;;;44.90;30.67;;;9.00;99.90;;;;;;2072569;28;20034;-71
2021/11/16 02:31:51;;;;;;;48.38;32.50;;;9.00;99.90;;;;;;2072842;28;20065;-71
2021/11/16 02:32:53;;;;;;;49.20;32.97;;;9.00;99.90;;;;;;2070844;28;20030;-71
2021/11/16 02:33:54;;;;;;;47.78;33.20;;;9.00;99.90;;;;;;2072998;28;20431;-70
2021/11/16 02:34:55;;;;;;;49.67;33.10;;;9.00;99.90;;;;;;2071460;28;20498;-71
2021/11/16 02:35:55;;;;;;;46.42;32.30;;;9.00;99.90;;;;;;2065440;28;20954;-71
2021/11/16 02:36:56;;;;;;;47.28;33.70;;;8.90;99.90;;;;;;2072320;28;20029;-71
2021/11/16 02:37:57;;;;;;;46.05;33.33;;;8.90;99.90;;;;;;2065585;28;20029;-71
2021/11/16 02:38:59;;;;;;;47.67;32.47;;;8.90;99.90;;;;;;2072048;28;20037;-71
2021/11/16 02:40:01;;;;;;;49.95;33.53;;;8.90;99.90;;;;;;2066993;28;20113;-71
2021/11/16 02:41:03;;;;;;;46.80;33.08;;;8.80;99.90;;;;;;2071279;28;20022;-71
2021/11/16 02:42:04;;;;;;;47.85;33.28;;;8.80;99.90;;;;;;2072543;28;20018;-71
2021/11/16 02:43:05;;;;;;;45.40;31.45;;;8.80;99.90;;;;;;2071890;28;20037;-71
2021/11/16 02:44:06;;;;;;;53.40;32.80;;;8.80;99.90;;;;;;2071996;28;20030;-71
2021/11/16 02:45:08;;;;;;;47.05;31.23;;;8.80;99.90;;;;;;2068059;28;20026;-71
2021/11/16 02:46:09;;;;;;;45.58;30.10;;;8.80;99.90;;;;;;2071451;28;20091;-71
2021/11/16 02:47:10;;;;;;;47.53;31.05;;;8.80;99.90;;;;;;2074891;28;20091;-71
2021/11/16 02:48:13;;;;;;;50.28;32.67;;;8.80;99.90;;;;;;2080354;28;20033;-71
2021/11/16 02:49:15;;;;;;;48.08;33.25;;;8.80;99.90;;;;;;2080477;28;20026;-71
2021/11/16 02:50:17;;;;;;;45.92;32.30;;;8.80;99.90;;;;;;2072273;28;20076;-71
2021/11/16 02:51:17;;;;;;;51.38;32.03;;;8.80;99.90;;;;;;2072344;28;20026;-71
2021/11/16 02:52:18;;;;;;;44.67;30.90;;;8.80;99.90;;;;;;2072657;28;20087;-71
2021/11/16 02:53:19;;;;;;;50.08;32.85;;;8.80;99.90;;;;;;2072466;28;20109;-71
2021/11/16 02:54:21;;;;;;;49.25;31.80;;;8.80;99.90;;;;;;2071375;28;20022;-71
2021/11/16 02:55:21;;;;;;;47.83;31.45;;;8.80;99.90;;;;;;2070244;28;20034;-71
2021/11/16 02:56:22;;;;;;;47.28;33.22;;;8.80;99.90;;;;;;2072601;28;20101;-71
2021/11/16 02:57:22;;;;;;;46.15;32.03;;;8.80;99.90;;;;;;2072579;28;20030;-71
2021/11/16 02:58:24;;;;;;;47.25;31.95;;;8.80;99.90;;;;;;2072294;28;20026;-71
2021/11/16 02:59:24;;;;;;;45.17;31.80;;;8.80;99.90;;;;;;2071487;28;20026;-71
2021/11/16 03:00:25;;;;;;;53.20;33.15;;;8.80;99.90;;;;;;2072643;28;20205;-71
2021/11/16 03:01:26;;;;;;;47.42;32.00;;;8.80;99.90;;;;;;2071577;28;20030;-71
2021/11/16 03:02:27;;;;;;;42.60;31.05;;;8.80;99.90;;;;;;2072676;28;20018;-71
2021/11/16 03:03:27;;;;;;;44.33;31.65;;;8.80;99.90;;;;;;2072138;28;20030;-71
2021/11/16 03:04:33;;;;;;;47.35;32.78;;;8.80;99.90;;;;;;2070653;28;20493;-71
2021/11/16 03:05:35;;;;;;;48.05;33.40;;;8.80;99.90;;;;;;2069023;28;20141;-71
2021/11/16 03:06:36;;;;;;;48.28;33.30;;;8.80;99.90;;;;;;2072623;28;20474;-71
2021/11/16 03:07:45;;;;;;;47.05;32.70;;;8.80;99.90;;;;;;2070929;28;20034;-71
2021/11/16 03:08:46;;;;;;;50.05;33.22;;;8.80;99.90;;;;;;2071478;28;20079;-71
2021/11/16 03:09:51;;;;;;;48.78;32.90;;;8.80;99.90;;;;;;2067939;28;20089;-71
2021/11/16 03:10:57;;;;;;;47.38;31.83;;;8.80;99.90;;;;;;2068678;28;20061;-71
2021/11/16 03:11:59;;;;;;;47.60;33.15;;;8.80;99.90;;;;;;2072469;28;20022;-71
2021/11/16 03:13:00;;;;;;;46.72;32.53;;;8.70;99.90;;;;;;2072229;28;20034;-71
2021/11/16 03:14:01;;;;;;;47.85;32.65;;;8.80;99.90;;;;;;2072246;28;20021;-71
2021/11/16 03:15:02;;;;;;;44.58;31.75;;;8.80;99.90;;;;;;2069204;28;20430;-71
2021/11/16 03:16:05;;;;;;;44.92;31.48;;;8.80;99.90;;;;;;2071170;28;20022;-71
2021/11/16 03:17:06;;;;;;;45.35;31.50;;;8.80;99.90;;;;;;2071778;28;20030;-71
2021/11/16 03:18:07;;;;;;;48.03;32.63;;;8.80;99.90;;;;;;2071585;28;20026;-71
2021/11/16 03:19:08;;;;;;;46.83;32.40;;;8.80;99.90;;;;;;2071149;28;20056;-71
2021/11/16 03:20:14;;;;;;;46.42;31.48;;;8.80;99.90;;;;;;2071971;28;20036;-71
2021/11/16 03:21:17;;;;;;;45.50;31.58;;;8.80;99.90;;;;;;2072598;28;20045;-71
2021/11/16 03:22:18;;;;;;;46.20;31.67;;;8.80;99.90;;;;;;2071809;28;20049;-71
2021/11/16 03:23:22;;;;;;;46.28;31.90;;;8.80;99.90;;;;;;2072395;28;20033;-71
2021/11/16 03:24:29;;;;;;;42.13;30.75;;;8.80;99.90;;;;;;2071566;28;20110;-71
2021/11/16 03:25:33;;;;;;;48.58;32.80;;;8.80;99.90;;;;;;2070411;28;20030;-71
2021/11/16 03:26:36;;;;;;;46.33;32.03;;;8.70;99.90;;;;;;2072086;28;20041;-71
2021/11/16 03:27:39;;;;;;;45.83;30.98;;;8.80;99.90;;;;;;2072411;28;20546;-71
2021/11/16 03:28:43;;;;;;;45.28;30.65;;;8.80;99.90;;;;;;2071504;28;20525;-71
2021/11/16 03:29:47;;;;;;;44.70;31.20;;;8.80;99.90;;;;;;2072048;28;20116;-71
2021/11/16 03:30:51;;;;;;;39.78;29.02;;;8.80;99.90;;;;;;2063542;28;20049;-71
2021/11/16 03:32:04;;;;;;;45.35;31.42;;;8.80;99.90;;;;;;2068428;28;20050;-71
2021/11/16 03:33:05;;;;;;;43.10;31.27;;;8.80;99.90;;;;;;2072500;28;20041;-71
2021/11/16 03:34:06;;;;;;;42.60;30.38;;;8.80;99.90;;;;;;2072068;28;20026;-71
2021/11/16 03:35:08;;;;;;;44.38;30.85;;;8.80;99.90;;;;;;2076284;28;20072;-71
2021/11/16 03:36:09;;;;;;;43.65;31.50;;;8.80;99.90;;;;;;2075302;28;20037;-71
2021/11/16 03:37:10;;;;;;;44.47;29.45;;;8.80;99.90;;;;;;2070647;28;20033;-71
2021/11/16 03:38:11;;;;;;;46.95;33.05;;;8.80;99.90;;;;;;2071363;28;20029;-71
2021/11/16 03:39:13;;;;;;;44.53;31.55;;;8.80;99.90;;;;;;2063961;28;20022;-71
2021/11/16 03:40:15;;;;;;;45.00;30.60;;;8.90;99.90;;;;;;2070423;28;20076;-71
2021/11/16 03:41:16;;;;;;;44.72;30.42;;;8.90;99.90;;;;;;2070376;28;20113;-71
2021/11/16 03:42:17;;;;;;;46.15;31.50;;;8.90;99.90;;;;;;2071397;28;20021;-71
2021/11/16 03:43:18;;;;;;;44.85;30.80;;;8.90;99.90;;;;;;2070150;28;20026;-71
2021/11/16 03:44:19;;;;;;;46.65;31.52;;;9.00;99.90;;;;;;2072653;28;20424;-71
2021/11/16 03:45:27;;;;;;;45.67;30.33;;;9.00;99.90;;;;;;2071979;28;20378;-71
2021/11/16 03:46:27;;;;;;;48.42;33.58;;;9.00;99.90;;;;;;2072261;28;20018;-71
2021/11/16 03:47:28;;;;;;;45.30;31.77;;;9.00;99.90;;;;;;2071763;28;20030;-71
2021/11/16 03:48:29;;;;;;;46.35;31.38;;;9.00;99.90;;;;;;2071107;28;20033;-71
2021/11/16 03:49:30;;;;;;;43.60;30.15;;;9.00;99.90;;;;;;2070694;28;20037;-71
2021/11/16 03:50:31;;;;;;;42.50;30.25;;;9.00;99.90;;;;;;2067095;28;20032;-71
2021/11/16 03:51:32;;;;;;;37.75;27.50;;;9.00;99.90;;;;;;2072234;28;20088;-71
2021/11/16 03:52:35;;;;;;;34.13;25.00;;;9.00;99.90;;;;;;2072077;28;20071;-71
2021/11/16 03:53:36;;;;;;;35.65;25.17;;;9.00;99.90;;;;;;2072116;28;20034;-71
2021/11/16 03:54:36;;;;;;;33.92;25.08;;;9.00;99.90;;;;;;2069058;28;20046;-71
2021/11/16 03:55:41;;;;;;;32.30;24.88;;;9.00;99.90;;;;;;2070675;28;20050;-71
2021/11/16 03:56:42;;;;;;;33.38;25.10;;;9.00;99.90;;;;;;2072113;28;20085;-71
2021/11/16 03:57:44;;;;;;;33.45;25.17;;;8.90;99.90;;;;;;2071771;28;20018;-71
2021/11/16 03:58:46;;;;;;;35.88;23.40;;;8.90;99.90;;;;;;2071547;28;20577;-71
2021/11/16 03:59:47;;;;;;;33.42;24.63;;;8.90;99.90;;;;;;2067222;28;20089;-71
2021/11/16 04:00:51;;;;;;;31.70;24.65;;;8.90;99.90;;;;;;2065075;28;20100;-71
2021/11/16 04:01:52;;;;;;;36.17;25.83;;;9.00;99.90;;;;;;2072127;28;20010;-71
2021/11/16 04:02:53;;;;;;;31.67;25.15;;;8.90;99.90;;;;;;2071998;28;20038;-71
2021/11/16 04:03:54;;;;;;;34.83;24.77;;;9.00;99.90;;;;;;2072115;28;20490;-71
2021/11/16 04:04:54;;;;;;;32.22;23.60;;;9.00;99.90;;;;;;2065658;28;20146;-71
2021/11/16 04:05:56;;;;;;;31.00;23.67;;;9.00;99.90;;;;;;2068938;28;20030;-71
2021/11/16 04:06:56;;;;;;;30.38;24.02;;;9.00;99.90;;;;;;2064117;28;20098;-71
2021/11/16 04:07:57;;;;;;;34.25;24.83;;;9.00;99.90;;;;;;2070851;28;20048;-71
2021/11/16 04:08:58;;;;;;;31.80;24.00;;;8.90;99.90;;;;;;2071466;28;20025;-71
2021/11/16 04:09:59;;;;;;;33.10;23.88;;;9.00;99.90;;;;;;2066114;28;20031;-71
2021/11/16 04:11:00;;;;;;;32.10;24.63;;;8.90;99.90;;;;;;2070554;28;20057;-71
2021/11/16 04:12:01;;;;;;;31.20;23.95;;;9.00;99.90;;;;;;2071897;28;20029;-71
2021/11/16 04:13:02;;;;;;;32.72;24.08;;;9.00;99.90;;;;;;2071948;28;20021;-71
2021/11/16 04:14:03;;;;;;;33.47;24.23;;;8.90;99.90;;;;;;2071815;28;20036;-71
2021/11/16 04:15:04;;;;;;;35.88;25.90;;;9.00;99.90;;;;;;2067174;28;20064;-71
2021/11/16 04:16:06;;;;;;;31.30;24.08;;;8.90;99.90;;;;;;2069270;28;20429;-71
2021/11/16 04:17:06;;;;;;;30.27;23.75;;;8.90;99.90;;;;;;2071811;28;20042;-71
2021/11/16 04:18:08;;;;;;;33.28;25.27;;;8.90;99.90;;;;;;2071242;28;20040;-71
2021/11/16 04:19:08;;;;;;;32.33;24.70;;;8.90;99.90;;;;;;2072099;28;20101;-71
2021/11/16 04:20:24;;;;;;;29.55;23.55;;;8.90;99.90;;;;;;2065533;28;20035;-71
2021/11/16 04:21:25;;;;;;;34.47;25.15;;;8.90;99.90;;;;;;2071921;28;20014;-71
2021/11/16 04:22:27;;;;;;;32.65;25.23;;;8.90;99.90;;;;;;2071402;28;20054;-71
2021/11/16 04:23:28;;;;;;;32.17;24.33;;;8.90;99.90;;;;;;2072104;28;20026;-71
2021/11/16 04:24:29;;;;;;;34.90;24.42;;;8.90;99.90;;;;;;2069836;28;20581;-71
2021/11/16 04:25:32;;;;;;;33.95;26.25;;;8.90;99.90;;;;;;2068711;28;20492;-71
2021/11/16 04:26:32;;;;;;;32.38;24.85;;;9.00;99.90;;;;;;2065532;28;20113;-71
2021/11/16 04:27:34;;;;;;;36.15;24.67;;;9.00;99.90;;;;;;2071612;28;20022;-71
2021/11/16 04:28:35;;;;;;;33.47;25.77;;;9.00;99.90;;;;;;2070983;28;20032;-71
2021/11/16 04:29:35;;;;;;;36.35;26.27;;;9.00;99.90;;;;;;2071049;28;20074;-71
2021/11/16 04:30:37;;;;;;;34.13;25.33;;;9.00;99.90;;;;;;2071587;28;20025;-71
2021/11/16 04:31:37;;;;;;;30.95;23.58;;;9.00;99.90;;;;;;2072030;28;20030;-71
2021/11/16 04:32:38;;;;;;;36.33;26.63;;;9.00;99.90;;;;;;2071617;28;20046;-71
2021/11/16 04:33:40;;;;;;;33.88;25.60;;;9.00;99.90;;;;;;2071351;28;20034;-71
2021/11/16 04:34:40;;;;;;;34.97;24.85;;;9.00;99.90;;;;;;2068085;28;20042;-71
2021/11/16 04:35:42;;;;;;;35.03;27.05;;;9.10;99.90;;;;;;2068603;28;20025;-71
2021/11/16 04:36:44;;;;;;;33.17;25.75;;;9.10;99.90;;;;;;2071433;28;20025;-71
2021/11/16 04:37:48;;;;;;;37.00;27.35;;;9.10;99.90;;;;;;2071887;28;20025;-71
2021/11/16 04:38:49;;;;;;;35.05;25.25;;;9.10;99.90;;;;;;2071082;28;20055;-71
2021/11/16 04:39:50;;;;;;;38.38;29.17;;;9.00;99.90;;;;;;2069230;28;20030;-71
2021/11/16 04:40:54;;;;;;;34.45;27.13;;;9.10;99.90;;;;;;2069207;28;20014;-71
2021/11/16 04:41:55;;;;;;;37.72;27.40;;;9.00;99.90;;;;;;2071881;28;20382;-71
2021/11/16 04:42:57;;;;;;;34.08;26.23;;;9.00;99.90;;;;;;2070723;28;20120;-71
2021/11/16 04:44:00;;;;;;;37.88;28.63;;;9.10;99.90;;;;;;2067103;28;20033;-71
2021/11/16 04:45:00;;;;;;;34.63;26.42;;;9.10;99.90;;;;;;2070567;28;20040;-71
2021/11/16 04:46:06;;;;;;;35.22;27.10;;;9.00;99.90;;;;;;2067987;28;20466;-71
2021/11/16 04:47:07;;;;;;;39.45;29.52;;;9.10;99.90;;;;;;2070694;28;20025;-71
2021/11/16 04:48:20;;;;;;;38.50;29.73;;;9.10;99.90;;;;;;2070423;28;20506;-71
2021/11/16 04:49:26;;;;;;;35.08;28.20;;;9.10;99.90;;;;;;2064631;28;20049;-71
2021/11/16 04:52:41;;;;;;;34.47;25.25;;;9.10;99.90;;;;;;2071981;28;20026;-71
2021/11/16 04:54:12;;;;;;;32.80;24.65;;;9.00;99.90;;;;;;2063611;28;20463;-71
2021/11/16 05:03:10;;;;;;;38.08;27.90;;;9.00;99.90;;;;;;2063527;28;20442;-71
2021/11/16 05:04:10;;;;;;;34.35;26.10;;;9.00;99.90;;;;;;2066663;28;20032;-71
2021/11/16 05:05:21;;;;;;;35.50;27.65;;;9.00;99.90;;;;;;2064687;28;20026;-71
2021/11/16 05:06:22;;;;;;;37.92;29.60;;;9.00;99.90;;;;;;2064945;28;20058;-71
2021/11/16 05:07:26;;;;;;;38.97;29.50;;;9.00;99.90;;;;;;2065492;28;20033;-71
2021/11/16 05:08:26;;;;;;;37.22;26.90;;;9.10;99.90;;;;;;2066689;28;20022;-71
2021/11/16 05:09:27;;;;;;;35.05;25.52;;;9.10;99.90;;;;;;2065748;28;20063;-71
2021/11/16 05:10:28;;;;;;;37.08;26.73;;;9.10;99.90;;;;;;2070394;28;20034;-71
2021/11/16 05:11:29;;;;;;;36.08;26.55;;;9.10;99.90;;;;;;2068654;28;20101;-71
2021/11/16 05:12:32;;;;;;;37.78;28.40;;;9.10;99.90;;;;;;2068208;28;20026;-71
2021/11/16 05:13:32;;;;;;;36.50;27.95;;;9.10;99.90;;;;;;2065457;28;20085;-71
2021/11/16 05:14:33;;;;;;;37.22;26.63;;;9.10;99.90;;;;;;2068488;28;20112;-71
2021/11/16 05:15:34;;;;;;;39.65;27.38;;;9.10;99.90;;;;;;2070105;28;20033;-71
2021/11/16 05:16:35;;;;;;;37.30;25.83;;;9.10;99.90;;;;;;2071109;28;20421;-71
2021/11/16 05:17:36;;;;;;;37.80;27.15;;;9.10;99.90;;;;;;2067879;28;20025;-71
2021/11/16 05:18:36;;;;;;;36.63;27.17;;;9.10;99.90;;;;;;2074419;28;20033;-71
2021/11/16 05:19:39;;;;;;;36.35;27.10;;;9.10;99.90;;;;;;2063038;28;20438;-71
2021/11/16 05:20:39;;;;;;;36.75;27.10;;;9.10;99.90;;;;;;2068457;28;20030;-71
2021/11/16 05:21:40;;;;;;;36.60;26.50;;;9.10;99.90;;;;;;2071860;28;20062;-71
2021/11/16 05:22:45;;;;;;;36.88;27.00;;;9.10;99.90;;;;;;2070903;28;20453;-71
2021/11/16 05:23:53;;;;;;;33.60;25.77;;;9.10;99.90;;;;;;2071126;28;20053;-71
2021/11/16 05:24:53;;;;;;;33.75;25.52;;;9.10;99.90;;;;;;2071080;28;20037;-71
2021/11/16 05:25:54;;;;;;;30.58;22.88;;;9.10;99.90;;;;;;2069508;28;20108;-71
2021/11/16 05:26:55;;;;;;;37.50;28.02;;;9.10;99.90;;;;;;2071004;28;20042;-71
2021/11/16 05:27:56;;;;;;;36.08;26.00;;;9.10;99.90;;;;;;2070194;28;20076;-71
2021/11/16 05:28:58;;;;;;;35.83;26.73;;;9.10;99.90;;;;;;2070210;28;20058;-71